Time;durP1;ratioP1;P1;durP2;ratioP2;P2;SDS_P1;SDS_P2;PMS_P1;PMS_P2;Temp;Humidity;BMP_temperature;BMP_pressure;BME280_temperature;BME280_humidity;BME280_pressure;Samples;Min_cycle;Max_cycle;Signal;HPM_P1;HPM_P2
2021/03/26 00:01:42;;;;;;;12.37;10.07;;;9.60;99.90;;;;;;4994060;28;20180;-67
2021/03/26 00:04:10;;;;;;;11.50;9.90;;;9.60;99.90;;;;;;4974663;28;20474;-66
2021/03/26 00:06:38;;;;;;;17.90;11.17;;;9.60;99.90;;;;;;4974251;28;20531;-67
2021/03/26 00:09:06;;;;;;;13.90;11.00;;;9.70;99.90;;;;;;4973259;28;20444;-67
2021/03/26 00:11:33;;;;;;;13.20;11.20;;;9.70;99.90;;;;;;4974419;28;20427;-67
2021/03/26 00:13:59;;;;;;;11.83;10.10;;;9.80;99.90;;;;;;4974283;28;20455;-67
2021/03/26 00:16:25;;;;;;;11.63;10.53;;;9.80;99.90;;;;;;4974372;28;20434;-66
2021/03/26 00:18:51;;;;;;;11.37;10.27;;;9.90;99.90;;;;;;4974129;28;20263;-67
2021/03/26 00:21:17;;;;;;;13.30;10.50;;;9.90;99.90;;;;;;4973842;28;20435;-67
2021/03/26 00:23:43;;;;;;;9.97;9.17;;;9.90;99.90;;;;;;4974178;28;20463;-67
2021/03/26 00:26:10;;;;;;;10.73;9.43;;;9.90;99.90;;;;;;4974181;28;20446;-67
2021/03/26 00:28:35;;;;;;;10.73;9.63;;;9.80;99.90;;;;;;4974158;28;20230;-67
2021/03/26 00:31:01;;;;;;;12.00;10.60;;;9.80;99.90;;;;;;4973457;28;20790;-67
2021/03/26 00:33:27;;;;;;;11.40;10.00;;;9.70;99.90;;;;;;4973702;28;20208;-67
2021/03/26 00:35:54;;;;;;;9.77;8.80;;;9.70;99.90;;;;;;4974078;28;20263;-67
2021/03/26 00:38:21;;;;;;;11.80;10.70;;;9.60;99.90;;;;;;4974222;28;20671;-67
2021/03/26 00:40:47;;;;;;;13.97;11.07;;;9.50;99.90;;;;;;4973054;28;20494;-67
2021/03/26 00:43:12;;;;;;;11.30;10.23;;;9.50;99.90;;;;;;4973540;28;20456;-67
2021/03/26 00:45:39;;;;;;;12.70;11.40;;;9.40;99.90;;;;;;4973818;28;20427;-67
2021/03/26 00:48:05;;;;;;;11.83;10.30;;;9.30;99.90;;;;;;4974015;28;20183;-67
2021/03/26 00:50:36;;;;;;;15.37;10.80;;;9.20;99.90;;;;;;4973344;28;20512;-67
2021/03/26 00:53:07;;;;;;;12.20;10.33;;;9.00;99.90;;;;;;4973550;28;20490;-66
2021/03/26 00:55:33;;;;;;;11.57;10.03;;;9.00;99.90;;;;;;4973473;28;20440;-67
2021/03/26 00:57:58;;;;;;;15.47;10.93;;;9.00;99.90;;;;;;4973861;28;20463;-67
2021/03/26 01:00:26;;;;;;;15.70;10.07;;;8.90;99.90;;;;;;4972693;28;20482;-67
2021/03/26 01:02:52;;;;;;;12.53;10.33;;;8.80;99.90;;;;;;4973529;28;20204;-67
2021/03/26 01:05:27;;;;;;;11.17;10.00;;;8.70;99.90;;;;;;4973425;28;20530;-67
2021/03/26 01:07:53;;;;;;;14.13;10.70;;;8.70;99.90;;;;;;4973524;28;20667;-67
2021/03/26 01:10:22;;;;;;;15.03;11.47;;;8.70;99.90;;;;;;4973159;28;20527;-67
2021/03/26 01:12:48;;;;;;;11.47;10.27;;;8.70;99.90;;;;;;4973676;28;20208;-67
2021/03/26 01:15:15;;;;;;;11.63;10.43;;;8.70;99.90;;;;;;4973515;28;20941;-67
2021/03/26 01:17:42;;;;;;;12.10;10.30;;;8.70;99.90;;;;;;4973442;28;20196;-67
2021/03/26 01:20:10;;;;;;;12.17;10.10;;;8.70;99.90;;;;;;4972626;28;20443;-67
2021/03/26 01:22:36;;;;;;;11.33;10.13;;;8.70;99.90;;;;;;4972638;28;20458;-67
2021/03/26 01:25:14;;;;;;;12.33;10.10;;;8.70;99.90;;;;;;4955647;28;20463;-67
2021/03/26 01:27:40;;;;;;;13.33;10.07;;;8.80;99.90;;;;;;4973225;28;20180;-67
2021/03/26 01:30:10;;;;;;;12.57;11.27;;;8.70;99.90;;;;;;4972404;28;20431;-67
2021/03/26 01:32:37;;;;;;;11.40;10.27;;;8.80;99.90;;;;;;4973223;28;20343;-67
2021/03/26 01:35:04;;;;;;;15.60;9.90;;;8.70;99.90;;;;;;4972949;28;20530;-67
2021/03/26 01:37:30;;;;;;;11.63;10.47;;;8.70;99.90;;;;;;4973027;28;20947;-67
2021/03/26 01:39:55;;;;;;;12.57;10.13;;;8.70;99.90;;;;;;4972166;28;20450;-67
2021/03/26 01:42:25;;;;;;;13.50;11.40;;;8.80;99.90;;;;;;4955509;28;20211;-67
2021/03/26 01:44:50;;;;;;;12.53;10.70;;;8.80;99.90;;;;;;4972520;28;20208;-67
2021/03/26 01:47:16;;;;;;;13.63;10.50;;;8.80;99.90;;;;;;4973057;28;20439;-67
2021/03/26 01:49:42;;;;;;;13.00;9.80;;;8.80;99.90;;;;;;4971873;28;20474;-67
2021/03/26 01:52:07;;;;;;;12.77;10.40;;;8.70;99.90;;;;;;4972568;28;20208;-66
2021/03/26 01:54:33;;;;;;;12.57;11.30;;;8.60;99.90;;;;;;4972769;28;20219;-67
2021/03/26 01:56:59;;;;;;;11.00;9.80;;;8.60;99.90;;;;;;4972479;28;20259;-67
2021/03/26 01:59:24;;;;;;;14.30;11.80;;;8.60;99.90;;;;;;4972114;28;20223;-67
2021/03/26 02:01:57;;;;;;;11.80;10.60;;;8.50;99.90;;;;;;4972649;28;20223;-67
2021/03/26 02:04:30;;;;;;;14.10;11.07;;;8.40;99.90;;;;;;4972408;28;20211;-67
2021/03/26 02:06:56;;;;;;;11.07;10.07;;;8.40;99.90;;;;;;4972729;28;20435;-66
2021/03/26 02:09:27;;;;;;;14.97;11.20;;;8.30;99.90;;;;;;4971837;28;20432;-67
2021/03/26 02:12:05;;;;;;;12.70;9.87;;;8.30;99.90;;;;;;4972167;28;20435;-67
2021/03/26 02:14:45;;;;;;;12.17;10.00;;;8.30;99.90;;;;;;4972682;28;20530;-67
2021/03/26 02:17:17;;;;;;;13.73;11.17;;;8.20;99.90;;;;;;4969002;28;20439;-67
2021/03/26 02:19:48;;;;;;;12.17;10.37;;;8.30;99.90;;;;;;4970462;28;20440;-67
2021/03/26 02:22:15;;;;;;;11.73;10.53;;;8.30;99.90;;;;;;4971951;28;20455;-67
2021/03/26 02:24:44;;;;;;;15.10;10.80;;;8.40;99.90;;;;;;4971797;28;20869;-67
2021/03/26 02:27:17;;;;;;;12.97;10.67;;;8.50;99.90;;;;;;4972106;28;20829;-67
2021/03/26 02:29:43;;;;;;;11.50;9.90;;;8.50;99.90;;;;;;4971277;28;20435;-67
2021/03/26 02:32:27;;;;;;;13.30;10.90;;;8.50;99.90;;;;;;4972071;28;20518;-67
2021/03/26 02:35:16;;;;;;;13.63;10.80;;;8.60;99.90;;;;;;4971682;28;20471;-67
2021/03/26 02:38:05;;;;;;;13.30;10.27;;;8.60;99.90;;;;;;4971972;28;20435;-67
2021/03/26 02:40:53;;;;;;;13.63;11.13;;;8.60;99.90;;;;;;4971131;28;20455;-67
2021/03/26 02:43:41;;;;;;;12.33;10.30;;;8.70;99.90;;;;;;4957014;28;20463;-68
2021/03/26 02:46:13;;;;;;;15.93;9.53;;;8.70;99.90;;;;;;4971561;28;20506;-67
2021/03/26 02:48:56;;;;;;;13.27;10.00;;;8.60;99.90;;;;;;4971986;28;20531;-67
2021/03/26 02:51:36;;;;;;;16.90;12.10;;;8.50;99.90;;;;;;4968675;28;20435;-67
2021/03/26 02:54:12;;;;;;;14.67;9.40;;;8.40;99.90;;;;;;4971858;28;20813;-67
2021/03/26 02:56:52;;;;;;;11.43;10.23;;;8.40;99.90;;;;;;4971550;28;20535;-67
2021/03/26 02:59:30;;;;;;;13.37;10.63;;;8.30;99.90;;;;;;4971103;28;20474;-67
2021/03/26 03:01:56;;;;;;;11.87;10.57;;;8.30;99.90;;;;;;4960551;28;20443;-66
2021/03/26 03:04:33;;;;;;;11.63;10.37;;;8.30;99.90;;;;;;4971686;28;20522;-67
2021/03/26 03:07:10;;;;;;;12.70;10.40;;;8.20;99.90;;;;;;4971793;28;20613;-67
2021/03/26 03:09:38;;;;;;;11.77;10.33;;;8.30;99.90;;;;;;4971057;28;20438;-67
2021/03/26 03:12:10;;;;;;;16.63;10.20;;;8.20;99.90;;;;;;4971715;28;20451;-67
2021/03/26 03:14:53;;;;;;;14.50;10.47;;;8.20;99.90;;;;;;4971217;28;20436;-69
2021/03/26 03:17:28;;;;;;;11.27;9.17;;;8.10;99.90;;;;;;4971373;28;20462;-67
2021/03/26 03:20:01;;;;;;;12.43;10.53;;;8.10;99.90;;;;;;4970428;28;20449;-68
2021/03/26 03:22:37;;;;;;;17.63;11.57;;;8.10;99.90;;;;;;4971012;28;20456;-67
2021/03/26 03:25:10;;;;;;;15.87;10.90;;;8.00;99.90;;;;;;4971365;28;20535;-68
2021/03/26 03:27:38;;;;;;;10.90;9.80;;;8.00;99.90;;;;;;4971116;28;20436;-68
2021/03/26 03:30:30;;;;;;;13.73;10.93;;;8.00;99.90;;;;;;4970829;28;20562;-67
2021/03/26 03:33:06;;;;;;;16.83;11.43;;;7.80;99.90;;;;;;4957752;28;20970;-68
2021/03/26 03:35:35;;;;;;;15.70;12.43;;;7.70;99.90;;;;;;4975210;28;20439;-67
2021/03/26 03:38:20;;;;;;;13.90;10.70;;;7.60;99.90;;;;;;4975181;28;20849;-67
2021/03/26 03:40:57;;;;;;;12.70;10.83;;;7.60;99.90;;;;;;4974428;28;20431;-67
2021/03/26 03:43:52;;;;;;;11.87;10.57;;;7.50;99.90;;;;;;4974786;28;20487;-68
2021/03/26 03:46:30;;;;;;;18.80;11.13;;;7.50;99.90;;;;;;4974892;28;20442;-67
2021/03/26 03:49:12;;;;;;;14.00;10.70;;;7.60;99.90;;;;;;4974501;28;20442;-68
2021/03/26 03:52:15;;;;;;;15.73;12.90;;;7.50;99.90;;;;;;4974762;28;20842;-68
2021/03/26 03:55:05;;;;;;;14.17;11.43;;;7.50;99.90;;;;;;4974562;28;20447;-68
2021/03/26 03:57:36;;;;;;;16.40;11.93;;;7.50;99.90;;;;;;4974892;28;20482;-68
2021/03/26 04:00:11;;;;;;;16.83;11.50;;;7.50;99.90;;;;;;4974152;28;20428;-68
2021/03/26 04:02:46;;;;;;;16.70;12.10;;;7.60;99.90;;;;;;4974962;28;20449;-68
2021/03/26 04:05:17;;;;;;;13.10;11.77;;;7.60;99.90;;;;;;4973792;28;20538;-68
2021/03/26 04:08:05;;;;;;;13.50;12.17;;;7.70;99.90;;;;;;4974522;28;20435;-68
2021/03/26 04:10:35;;;;;;;14.33;11.40;;;7.70;99.90;;;;;;4962116;28;20486;-68
2021/03/26 04:13:05;;;;;;;18.87;14.80;;;7.80;99.90;;;;;;4975064;28;20521;-68
2021/03/26 04:15:42;;;;;;;20.60;12.07;;;7.80;99.90;;;;;;4974481;28;20450;-68
2021/03/26 04:18:21;;;;;;;15.47;10.83;;;7.90;99.90;;;;;;4974732;28;20423;-67
2021/03/26 04:20:58;;;;;;;15.80;12.07;;;7.80;99.90;;;;;;4973601;28;20447;-68
2021/03/26 04:23:30;;;;;;;12.10;10.80;;;7.90;99.90;;;;;;4956602;28;20537;-68
2021/03/26 04:26:15;;;;;;;15.30;11.97;;;7.90;99.90;;;;;;4973532;28;20446;-68
2021/03/26 04:28:47;;;;;;;12.00;10.80;;;8.00;99.90;;;;;;4972689;28;20438;-68
2021/03/26 04:31:20;;;;;;;13.80;11.93;;;8.00;99.90;;;;;;4973608;28;20432;-68
2021/03/26 04:33:46;;;;;;;13.80;12.10;;;8.00;99.90;;;;;;4973792;28;20542;-68
2021/03/26 04:36:15;;;;;;;14.97;11.27;;;8.00;99.90;;;;;;4974224;28;20590;-67
2021/03/26 04:39:05;;;;;;;13.33;11.87;;;7.90;99.90;;;;;;4974247;28;20534;-67
2021/03/26 04:41:54;;;;;;;13.77;12.20;;;7.90;99.90;;;;;;4971142;28;20476;-67
2021/03/26 04:44:31;;;;;;;12.70;11.40;;;7.90;99.90;;;;;;4973735;28;20463;-67
2021/03/26 04:47:12;;;;;;;13.53;12.13;;;8.00;99.90;;;;;;4973971;28;20486;-67
2021/03/26 04:49:49;;;;;;;12.53;11.10;;;8.00;99.90;;;;;;4970539;28;20438;-67
2021/03/26 04:52:40;;;;;;;15.27;12.73;;;8.10;99.90;;;;;;4973613;28;20512;-67
2021/03/26 04:55:17;;;;;;;12.93;11.53;;;8.00;99.90;;;;;;4972627;28;20814;-68
2021/03/26 04:57:42;;;;;;;18.17;11.87;;;8.00;99.90;;;;;;4973466;28;20447;-67
2021/03/26 05:00:16;;;;;;;14.17;11.07;;;8.00;99.90;;;;;;4973123;28;20439;-67
2021/03/26 05:02:47;;;;;;;13.77;11.57;;;8.10;99.90;;;;;;4973764;28;20216;-67
2021/03/26 05:05:16;;;;;;;12.37;11.10;;;8.10;99.90;;;;;;4969517;28;20470;-67
2021/03/26 05:07:44;;;;;;;12.87;10.90;;;8.00;99.90;;;;;;4973511;28;20982;-67
2021/03/26 05:10:21;;;;;;;17.17;12.13;;;8.10;99.90;;;;;;4973257;28;20436;-67
2021/03/26 05:13:01;;;;;;;15.90;12.90;;;8.00;99.90;;;;;;4973752;28;20451;-67
2021/03/26 05:15:32;;;;;;;17.70;13.37;;;8.10;99.90;;;;;;4973356;28;20518;-67
2021/03/26 05:18:19;;;;;;;16.87;13.47;;;8.00;99.90;;;;;;4973431;28;20537;-67
2021/03/26 05:21:02;;;;;;;15.73;11.80;;;7.90;99.90;;;;;;4972576;28;20427;-67
2021/03/26 05:23:38;;;;;;;17.90;13.03;;;7.90;99.90;;;;;;4972857;28;20570;-67
2021/03/26 05:26:04;;;;;;;15.43;12.07;;;8.00;99.90;;;;;;4973038;28;20438;-67
2021/03/26 05:28:33;;;;;;;18.47;13.17;;;8.00;99.90;;;;;;4973232;28;20431;-67
2021/03/26 05:31:36;;;;;;;17.07;13.53;;;7.90;99.90;;;;;;4970934;28;20439;-67
2021/03/26 05:34:17;;;;;;;16.47;13.37;;;7.90;99.90;;;;;;4973388;28;20538;-67
2021/03/26 05:37:05;;;;;;;16.80;14.43;;;7.80;99.90;;;;;;4973610;28;20425;-70
2021/03/26 05:39:34;;;;;;;22.43;16.83;;;7.80;99.90;;;;;;4958988;28;20806;-67
2021/03/26 05:42:30;;;;;;;16.53;14.60;;;7.80;99.90;;;;;;4955045;28;20432;-67
2021/03/26 05:45:16;;;;;;;21.47;14.47;;;7.80;99.90;;;;;;4962012;28;20993;-67
2021/03/26 05:48:02;;;;;;;19.40;14.00;;;7.70;99.90;;;;;;4972159;28;20785;-68
2021/03/26 05:50:47;;;;;;;17.50;13.40;;;7.80;99.90;;;;;;4971778;28;20435;-67
2021/03/26 05:53:43;;;;;;;25.27;15.20;;;7.90;99.90;;;;;;5002775;23;20481;-66
2021/03/26 05:56:38;;;;;;;20.03;13.80;;;8.10;99.90;;;;;;5009676;28;20430;-66
2021/03/26 05:59:40;;;;;;;17.10;13.20;;;8.20;99.90;;;;;;5006792;28;20831;-66
2021/03/26 06:02:50;;;;;;;20.80;13.47;;;8.40;99.90;;;;;;5011382;28;20429;-66
2021/03/26 06:05:25;;;;;;;15.80;13.70;;;8.50;99.90;;;;;;4997556;28;20470;-66
2021/03/26 06:08:18;;;;;;;15.80;13.70;;;8.60;99.90;;;;;;4996764;28;20939;-66
2021/03/26 06:11:20;;;;;;;17.70;13.97;;;8.70;99.90;;;;;;4996481;28;20525;-66
2021/03/26 06:14:34;;;;;;;19.80;13.40;;;8.80;99.90;;;;;;5011365;28;20814;-66
2021/03/26 06:18:01;;;;;;;25.30;14.63;;;8.80;99.90;;;;;;4997833;28;20429;-66
2021/03/26 06:21:02;;;;;;;20.77;15.00;;;9.10;99.90;;;;;;4976845;28;20456;-66
2021/03/26 06:24:16;;;;;;;20.20;14.63;;;9.30;99.90;;;;;;4993266;28;20497;-66
2021/03/26 06:27:11;;;;;;;16.60;13.90;;;9.60;99.90;;;;;;4950089;28;20519;-66
2021/03/26 06:29:46;;;;;;;19.60;14.87;;;9.90;99.90;;;;;;5000869;28;20948;-66
2021/03/26 06:32:52;;;;;;;17.27;14.27;;;10.10;99.90;;;;;;5002719;28;20493;-66
2021/03/26 06:35:42;;;;;;;21.87;15.70;;;10.30;99.90;;;;;;4991419;28;20440;-66
2021/03/26 06:38:30;;;;;;;18.63;13.97;;;10.40;99.90;;;;;;5005732;28;20454;-66
2021/03/26 06:41:11;;;;;;;19.07;14.67;;;10.40;99.90;;;;;;4994757;28;20469;-65
2021/03/26 06:43:48;;;;;;;25.37;15.13;;;10.60;99.90;;;;;;4998654;28;20806;-65
2021/03/26 06:46:44;;;;;;;16.10;14.47;;;10.50;99.90;;;;;;4992533;28;20426;-65
2021/03/26 06:49:28;;;;;;;24.90;18.77;;;10.50;99.90;;;;;;5003527;28;20425;-65
2021/03/26 06:52:15;;;;;;;23.13;20.17;;;10.50;99.90;;;;;;4997221;28;21182;-65
2021/03/26 06:55:19;;;;;;;19.10;14.83;;;10.60;99.90;;;;;;4992294;28;20856;-65
2021/03/26 06:57:58;;;;;;;18.63;14.53;;;10.70;99.90;;;;;;5002470;28;20429;-64
2021/03/26 07:00:55;;;;;;;18.97;15.00;;;10.60;99.90;;;;;;5007824;28;20783;-68
2021/03/26 07:03:50;;;;;;;19.07;14.93;;;10.50;99.90;;;;;;4990073;28;20524;-68
2021/03/26 07:06:43;;;;;;;22.27;16.30;;;10.60;99.90;;;;;;4954095;28;20439;-68
2021/03/26 07:09:17;;;;;;;18.13;15.17;;;10.70;99.90;;;;;;4992286;28;20517;-67
2021/03/26 07:12:24;;;;;;;22.87;14.90;;;10.80;99.90;;;;;;4999211;28;20777;-69
2021/03/26 07:14:53;;;;;;;17.60;15.70;;;11.00;99.90;;;;;;4986877;28;20952;-68
2021/03/26 07:17:27;;;;;;;16.83;15.03;;;11.40;99.90;;;;;;5007941;28;20503;-64
2021/03/26 07:20:14;;;;;;;14.67;13.00;;;11.70;99.90;;;;;;5000977;28;20429;-64
2021/03/26 07:22:58;;;;;;;14.43;12.70;;;12.10;99.90;;;;;;4996043;28;20457;-64
2021/03/26 07:25:42;;;;;;;17.27;12.07;;;12.20;99.90;;;;;;4999556;28;20463;-64
2021/03/26 07:28:28;;;;;;;16.87;12.60;;;12.00;99.90;;;;;;4998892;28;20446;-64
2021/03/26 07:31:12;;;;;;;16.60;11.60;;;11.80;99.90;;;;;;4993734;28;20512;-64
2021/03/26 07:33:50;;;;;;;15.93;12.03;;;11.80;99.90;;;;;;4997206;28;20458;-64
2021/03/26 07:36:41;;;;;;;16.53;12.20;;;12.00;99.90;;;;;;4994889;28;20960;-64
2021/03/26 07:39:30;;;;;;;13.43;10.90;;;12.20;99.90;;;;;;4998997;28;20469;-64
2021/03/26 07:42:21;;;;;;;14.73;11.83;;;12.30;99.90;;;;;;5000186;28;20429;-64
2021/03/26 07:45:07;;;;;;;15.33;11.23;;;12.70;99.90;;;;;;5000736;28;20511;-64
2021/03/26 07:48:00;;;;;;;12.93;11.40;;;12.80;99.90;;;;;;5004443;28;20935;-64
2021/03/26 07:50:50;;;;;;;16.30;11.87;;;13.00;99.90;;;;;;5001131;28;20434;-64
2021/03/26 07:53:58;;;;;;;14.10;11.57;;;13.30;99.90;;;;;;4994185;28;21402;-64
2021/03/26 07:56:33;;;;;;;18.67;11.20;;;13.50;99.90;;;;;;4986973;28;20441;-64
2021/03/26 07:59:35;;;;;;;13.17;11.87;;;13.70;99.90;;;;;;4996100;28;20500;-65
2021/03/26 08:02:12;;;;;;;15.53;12.40;;;13.80;99.90;;;;;;4995614;28;20429;-65
2021/03/26 08:05:04;;;;;;;14.50;10.70;;;13.80;99.90;;;;;;5006497;28;20990;-65
2021/03/26 08:07:51;;;;;;;14.70;11.63;;;14.40;99.90;;;;;;4995423;28;20432;-65
2021/03/26 08:10:37;;;;;;;15.07;11.53;;;14.60;99.90;;;;;;4997957;28;20430;-65
2021/03/26 08:13:22;;;;;;;15.17;12.60;;;14.90;99.90;;;;;;4979552;28;20465;-65
2021/03/26 08:16:29;;;;;;;12.57;11.23;;;14.80;99.90;;;;;;4984629;28;20517;-65
2021/03/26 08:19:22;;;;;;;17.40;11.53;;;15.20;99.90;;;;;;4973935;28;20686;-65
2021/03/26 08:22:17;;;;;;;13.20;10.77;;;15.40;99.90;;;;;;4981376;28;20442;-62
2021/03/26 08:25:00;;;;;;;13.70;10.60;;;15.60;99.90;;;;;;4987154;28;20466;-62
2021/03/26 08:27:41;;;;;;;11.13;10.13;;;15.80;99.90;;;;;;4987249;28;20485;-62
2021/03/26 08:30:30;;;;;;;12.50;11.30;;;16.00;99.90;;;;;;4999810;28;20438;-65
2021/03/26 08:33:03;;;;;;;11.50;10.10;;;16.20;99.80;;;;;;4993616;28;20463;-65
2021/03/26 08:35:47;;;;;;;13.17;11.67;;;16.30;98.40;;;;;;4985445;28;20450;-64
2021/03/26 08:38:50;;;;;;;11.93;10.40;;;15.80;98.30;;;;;;5007843;28;20433;-65
2021/03/26 08:41:34;;;;;;;11.53;10.20;;;15.90;98.60;;;;;;5010087;28;20440;-65
2021/03/26 08:44:00;;;;;;;15.57;11.40;;;16.50;97.70;;;;;;4992501;28;20473;-65
2021/03/26 08:46:33;;;;;;;13.63;11.13;;;16.80;95.70;;;;;;4969610;28;20521;-65
2021/03/26 08:49:24;;;;;;;12.87;11.57;;;16.70;96.10;;;;;;5009368;28;20439;-65
2021/03/26 08:52:12;;;;;;;15.60;11.90;;;16.90;95.90;;;;;;5002458;28;20426;-65
2021/03/26 08:55:26;;;;;;;14.67;12.57;;;16.90;95.00;;;;;;4979736;28;21233;-65
2021/03/26 08:58:23;;;;;;;12.63;11.33;;;17.40;94.70;;;;;;4930084;28;20485;-65
2021/03/26 09:01:25;;;;;;;15.87;12.53;;;17.90;93.80;;;;;;4992774;28;20441;-65
2021/03/26 09:04:25;;;;;;;13.70;12.40;;;18.40;91.90;;;;;;5003490;28;20492;-65
2021/03/26 09:07:28;;;;;;;14.43;12.93;;;18.90;90.10;;;;;;4998020;28;20434;-65
2021/03/26 09:10:39;;;;;;;15.43;13.70;;;19.20;86.70;;;;;;4995403;28;20446;-65
2021/03/26 09:13:08;;;;;;;14.80;13.17;;;19.70;82.80;;;;;;5003756;28;20988;-66
2021/03/26 09:15:34;;;;;;;15.67;13.27;;;19.10;83.00;;;;;;5001855;28;20438;-66
2021/03/26 09:18:22;;;;;;;19.93;14.70;;;19.60;82.80;;;;;;4997110;28;20979;-65
2021/03/26 09:20:50;;;;;;;15.93;14.43;;;20.40;77.20;;;;;;4994332;28;20195;-65
2021/03/26 09:23:54;;;;;;;15.73;14.13;;;19.90;79.10;;;;;;5001114;28;21159;-64
2021/03/26 09:26:56;;;;;;;15.33;13.20;;;21.10;75.70;;;;;;5005690;28;20443;-63
2021/03/26 09:29:43;;;;;;;12.90;11.67;;;21.90;70.80;;;;;;5008706;28;21002;-63
2021/03/26 09:32:26;;;;;;;15.73;14.13;;;21.90;67.50;;;;;;4998497;28;20751;-63
2021/03/26 09:35:04;;;;;;;14.20;11.73;;;22.80;65.20;;;;;;4998445;28;20476;-63
2021/03/26 09:38:04;;;;;;;15.00;13.60;;;23.60;62.20;;;;;;4993410;28;20436;-63
2021/03/26 09:40:39;;;;;;;13.80;12.37;;;23.90;59.70;;;;;;4993727;28;20438;-64
2021/03/26 09:43:31;;;;;;;13.43;12.13;;;24.50;58.30;;;;;;4999158;28;20844;-63
2021/03/26 09:46:00;;;;;;;14.83;11.80;;;24.20;57.40;;;;;;4966016;28;20439;-63
2021/03/26 09:48:59;;;;;;;13.73;12.47;;;24.50;56.50;;;;;;5008225;28;20722;-63
2021/03/26 09:52:09;;;;;;;13.23;12.10;;;23.60;55.80;;;;;;5004686;28;20430;-64
2021/03/26 09:54:38;;;;;;;13.73;12.57;;;24.70;54.90;;;;;;4950653;29;20804;-63
2021/03/26 09:57:04;;;;;;;14.27;12.97;;;24.70;54.60;;;;;;4994937;28;20442;-63
2021/03/26 09:59:47;;;;;;;14.30;12.80;;;25.20;53.30;;;;;;4992710;28;20426;-63
2021/03/26 10:02:37;;;;;;;15.00;11.57;;;24.70;52.80;;;;;;5004612;28;20551;-63
2021/03/26 10:05:17;;;;;;;12.57;11.37;;;24.10;53.10;;;;;;5005177;28;20461;-63
2021/03/26 10:08:05;;;;;;;12.63;10.50;;;23.80;52.70;;;;;;5002099;28;20924;-63
2021/03/26 10:13:01;;;;;;;13.17;11.87;;;24.50;52.70;;;;;;4994520;28;20449;-63
2021/03/26 10:15:40;;;;;;;12.13;10.73;;;23.80;53.10;;;;;;5005973;28;20938;-65
2021/03/26 10:18:11;;;;;;;12.00;9.80;;;23.10;53.10;;;;;;5004028;28;20448;-66
2021/03/26 10:20:55;;;;;;;13.10;10.27;;;23.70;53.00;;;;;;5004079;28;20492;-63
2021/03/26 10:23:29;;;;;;;15.53;10.53;;;23.50;51.80;;;;;;5004830;28;20948;-63
2021/03/26 10:25:54;;;;;;;10.23;9.40;;;23.00;52.40;;;;;;5005052;28;20465;-63
2021/03/26 10:28:47;;;;;;;14.50;11.17;;;22.90;52.80;;;;;;4998219;28;20520;-63
2021/03/26 10:31:30;;;;;;;11.17;10.00;;;22.60;52.50;;;;;;5002603;28;20182;-63
2021/03/26 10:33:59;;;;;;;11.70;10.10;;;22.60;52.30;;;;;;4993341;28;20461;-63
2021/03/26 10:36:36;;;;;;;9.80;9.00;;;22.50;52.60;;;;;;4997501;28;20452;-63
2021/03/26 10:39:08;;;;;;;18.90;14.43;;;23.30;52.50;;;;;;5000185;28;20948;-63
2021/03/26 10:41:50;;;;;;;10.63;9.63;;;23.20;51.20;;;;;;5008998;28;20948;-63
2021/03/26 10:44:18;;;;;;;8.83;8.13;;;23.10;51.50;;;;;;5008806;28;20458;-63
2021/03/26 10:46:51;;;;;;;9.70;8.83;;;23.60;50.30;;;;;;5009102;28;20805;-63
2021/03/26 10:49:25;;;;;;;8.70;7.80;;;23.70;49.80;;;;;;4994332;28;20801;-63
2021/03/26 10:52:02;;;;;;;9.53;8.50;;;23.90;49.00;;;;;;4997122;28;20433;-65
2021/03/26 10:54:46;;;;;;;9.20;8.40;;;23.20;50.10;;;;;;5003237;28;20469;-63
2021/03/26 10:57:27;;;;;;;9.63;8.40;;;22.70;49.90;;;;;;5010117;28;20528;-63
2021/03/26 10:59:52;;;;;;;9.20;8.30;;;23.40;49.30;;;;;;4998814;28;20820;-63
2021/03/26 11:02:30;;;;;;;8.40;7.60;;;24.20;48.70;;;;;;5000196;28;20430;-63
2021/03/26 11:05:14;;;;;;;8.73;7.83;;;24.80;48.80;;;;;;5006498;28;20206;-63
2021/03/26 11:08:01;;;;;;;7.53;6.30;;;26.00;46.40;;;;;;4995487;28;20450;-63
2021/03/26 11:10:35;;;;;;;11.70;7.70;;;27.00;44.40;;;;;;4992698;28;20431;-66
2021/03/26 11:13:09;;;;;;;7.73;6.93;;;25.90;45.20;;;;;;4990403;28;20458;-66
2021/03/26 11:15:44;;;;;;;8.70;7.90;;;25.50;45.80;;;;;;4994940;28;20529;-66
2021/03/26 11:18:30;;;;;;;7.73;6.93;;;25.30;44.20;;;;;;5008590;28;20556;-66
2021/03/26 11:21:02;;;;;;;11.37;8.43;;;25.50;44.10;;;;;;4999685;28;20422;-67
2021/03/26 11:23:31;;;;;;;8.67;7.87;;;25.50;45.70;;;;;;4995402;28;20461;-68
2021/03/26 11:26:09;;;;;;;8.37;7.53;;;24.70;45.10;;;;;;5003317;28;20513;-66
2021/03/26 11:28:52;;;;;;;8.80;8.00;;;24.90;46.40;;;;;;4999109;28;20435;-68
2021/03/26 11:31:30;;;;;;;8.67;7.00;;;25.10;44.30;;;;;;4994389;28;20441;-66
2021/03/26 11:34:40;;;;;;;7.50;6.90;;;25.20;44.70;;;;;;5004593;28;20854;-68
2021/03/26 11:37:31;;;;;;;8.20;7.40;;;25.80;43.50;;;;;;4994712;28;20442;-67
2021/03/26 11:40:24;;;;;;;10.07;9.17;;;24.40;44.70;;;;;;4999002;28;20434;-67
2021/03/26 11:43:13;;;;;;;9.93;9.03;;;24.20;46.70;;;;;;5008553;28;20464;-67
2021/03/26 11:45:41;;;;;;;8.80;8.00;;;25.20;45.30;;;;;;4992669;28;20508;-69
2021/03/26 11:48:37;;;;;;;10.27;9.33;;;26.20;43.40;;;;;;5000096;28;20450;-67
2021/03/26 11:51:10;;;;;;;10.37;8.60;;;27.60;42.30;;;;;;4995057;28;20442;-68
2021/03/26 11:53:58;;;;;;;8.63;7.80;;;29.10;40.50;;;;;;4994466;28;20461;-69
2021/03/26 11:56:32;;;;;;;9.60;8.50;;;29.80;40.20;;;;;;4998900;28;20460;-71
2021/03/26 11:59:23;;;;;;;9.60;8.80;;;28.20;39.30;;;;;;5013464;28;20436;-67
2021/03/26 12:01:58;;;;;;;12.57;9.87;;;27.80;40.50;;;;;;5010639;28;20436;-67
2021/03/26 12:04:31;;;;;;;13.27;12.10;;;27.90;40.70;;;;;;5000318;28;20469;-66
2021/03/26 12:07:07;;;;;;;11.97;10.77;;;27.50;40.60;;;;;;5004092;28;20503;-66
2021/03/26 12:09:57;;;;;;;11.30;8.97;;;26.20;41.80;;;;;;4994796;28;20450;-67
2021/03/26 12:12:33;;;;;;;10.03;9.03;;;24.70;43.80;;;;;;5006605;28;20870;-65
2021/03/26 12:15:08;;;;;;;10.37;9.37;;;27.30;42.60;;;;;;5004431;28;20430;-64
2021/03/26 12:17:42;;;;;;;11.10;9.50;;;29.50;39.40;;;;;;5010325;28;20433;-64
2021/03/26 12:20:24;;;;;;;9.97;9.13;;;27.60;40.00;;;;;;5003682;28;20508;-64
2021/03/26 12:23:00;;;;;;;9.20;8.30;;;26.90;41.20;;;;;;5010453;28;20460;-65
2021/03/26 12:25:39;;;;;;;10.87;9.53;;;27.60;40.80;;;;;;4994150;28;20453;-64
2021/03/26 12:28:16;;;;;;;9.90;8.97;;;26.30;41.00;;;;;;5000057;28;20438;-64
2021/03/26 12:30:50;;;;;;;10.03;9.10;;;24.90;42.00;;;;;;4993961;28;20438;-64
2021/03/26 12:33:23;;;;;;;10.53;8.60;;;23.70;44.20;;;;;;5002739;28;20459;-64
2021/03/26 12:35:54;;;;;;;8.33;7.60;;;25.40;43.20;;;;;;5005409;28;20989;-64
2021/03/26 12:38:19;;;;;;;8.07;7.27;;;28.60;40.90;;;;;;5004016;28;20525;-64
2021/03/26 12:41:30;;;;;;;9.77;8.27;;;30.40;38.40;;;;;;4994375;28;20518;-64
2021/03/26 12:44:03;;;;;;;8.30;7.50;;;31.20;37.40;;;;;;4995074;28;20682;-64
2021/03/26 12:46:57;;;;;;;8.43;7.47;;;31.60;37.00;;;;;;5007093;28;20933;-63
2021/03/26 12:49:29;;;;;;;7.43;6.83;;;31.50;35.40;;;;;;5006506;28;20933;-64
2021/03/26 12:52:20;;;;;;;5.97;5.37;;;30.40;34.70;;;;;;5011306;28;20440;-64
2021/03/26 12:55:04;;;;;;;8.50;7.70;;;30.80;34.90;;;;;;5012809;28;20445;-64
2021/03/26 12:57:46;;;;;;;9.57;8.47;;;32.10;34.70;;;;;;4995288;28;20529;-64
2021/03/26 13:00:34;;;;;;;7.97;7.20;;;32.80;34.90;;;;;;4998675;28;20448;-65
2021/03/26 13:03:23;;;;;;;7.37;6.77;;;33.60;31.90;;;;;;4986533;28;20798;-64
2021/03/26 13:06:11;;;;;;;6.20;5.70;;;32.00;32.30;;;;;;5003427;28;20444;-64
2021/03/26 13:08:49;;;;;;;8.63;7.87;;;27.80;35.00;;;;;;4999936;28;20482;-65
2021/03/26 13:11:33;;;;;;;7.17;6.57;;;27.20;37.80;;;;;;5004019;28;20433;-66
2021/03/26 13:14:13;;;;;;;8.00;7.20;;;26.80;38.10;;;;;;5003965;28;20450;-64
2021/03/26 13:19:20;;;;;;;6.77;6.10;;;28.00;36.30;;;;;;4986087;28;20477;-66
2021/03/26 13:22:01;;;;;;;8.20;6.23;;;29.70;34.80;;;;;;4981385;28;20489;-65
2021/03/26 13:24:35;;;;;;;7.77;7.03;;;29.70;34.30;;;;;;4992262;28;20808;-65
2021/03/26 13:27:19;;;;;;;7.67;6.40;;;28.30;34.70;;;;;;4992554;28;20545;-67
2021/03/26 13:30:05;;;;;;;9.30;7.00;;;26.80;35.90;;;;;;4982330;28;20435;-67
2021/03/26 13:32:58;;;;;;;7.00;6.30;;;26.30;37.50;;;;;;4992057;28;20465;-66
2021/03/26 13:35:41;;;;;;;5.50;5.10;;;26.40;37.20;;;;;;4992047;28;20477;-66
2021/03/26 13:38:35;;;;;;;7.60;6.90;;;27.20;36.20;;;;;;4988194;28;20454;-67
2021/03/26 13:41:15;;;;;;;6.30;5.77;;;29.30;34.90;;;;;;4981520;28;21160;-67
2021/03/26 13:43:42;;;;;;;5.80;5.17;;;28.70;33.90;;;;;;4982362;28;20758;-67
2021/03/26 13:46:20;;;;;;;5.77;5.03;;;28.50;34.10;;;;;;4985892;28;20448;-67